sensor_id;sensor_type;location;lat;lon;timestamp;temperature;humidity
5588;DHT22;2816;49.778;9.986;2023-12-20T00:01:02;4.30;99.90
5588;DHT22;2816;49.778;9.986;2023-12-20T00:03:28;4.30;99.90
5588;DHT22;2816;49.778;9.986;2023-12-20T00:05:55;4.30;99.90
5588;DHT22;2816;49.778;9.986;2023-12-20T00:08:22;4.30;99.90
5588;DHT22;2816;49.778;9.986;2023-12-20T00:10:50;4.30;99.90
5588;DHT22;2816;49.778;9.986;2023-12-20T00:13:17;4.30;99.90
5588;DHT22;2816;49.778;9.986;2023-12-20T00:15:44;4.30;99.90
5588;DHT22;2816;49.778;9.986;2023-12-20T00:18:11;4.30;99.90
5588;DHT22;2816;49.778;9.986;2023-12-20T00:20:38;4.20;99.90
5588;DHT22;2816;49.778;9.986;2023-12-20T00:23:05;4.20;99.90
5588;DHT22;2816;49.778;9.986;2023-12-20T00:25:33;4.20;99.90
5588;DHT22;2816;49.778;9.986;2023-12-20T00:28:01;4.30;99.90
5588;DHT22;2816;49.778;9.986;2023-12-20T00:30:28;4.30;99.90
5588;DHT22;2816;49.778;9.986;2023-12-20T00:32:55;4.30;99.90
5588;DHT22;2816;49.778;9.986;2023-12-20T00:35:22;4.40;99.90
5588;DHT22;2816;49.778;9.986;2023-12-20T00:37:49;4.40;99.90
5588;DHT22;2816;49.778;9.986;2023-12-20T00:40:16;4.40;99.90
5588;DHT22;2816;49.778;9.986;2023-12-20T00:42:43;4.50;99.90
5588;DHT22;2816;49.778;9.986;2023-12-20T00:45:11;4.40;99.90
5588;DHT22;2816;49.778;9.986;2023-12-20T00:47:38;4.40;99.90
5588;DHT22;2816;49.778;9.986;2023-12-20T00:50:06;4.40;99.90
5588;DHT22;2816;49.778;9.986;2023-12-20T00:52:33;4.40;99.90
5588;DHT22;2816;49.778;9.986;2023-12-20T00:55:01;4.40;99.90
5588;DHT22;2816;49.778;9.986;2023-12-20T00:57:29;4.50;99.90
5588;DHT22;2816;49.778;9.986;2023-12-20T00:59:56;4.40;99.90
5588;DHT22;2816;49.778;9.986;2023-12-20T01:02:25;4.50;99.90
5588;DHT22;2816;49.778;9.986;2023-12-20T01:04:51;4.50;99.90
5588;DHT22;2816;49.778;9.986;2023-12-20T01:07:18;4.50;99.90
5588;DHT22;2816;49.778;9.986;2023-12-20T01:09:45;4.50;99.90
5588;DHT22;2816;49.778;9.986;2023-12-20T01:12:12;4.50;99.90
5588;DHT22;2816;49.778;9.986;2023-12-20T01:14:39;4.50;99.90
5588;DHT22;2816;49.778;9.986;2023-12-20T01:17:06;4.50;99.90
5588;DHT22;2816;49.778;9.986;2023-12-20T01:19:34;4.40;99.90
5588;DHT22;2816;49.778;9.986;2023-12-20T01:22:01;4.40;99.90
5588;DHT22;2816;49.778;9.986;2023-12-20T01:24:29;4.40;99.90
5588;DHT22;2816;49.778;9.986;2023-12-20T01:26:55;4.40;99.90
5588;DHT22;2816;49.778;9.986;2023-12-20T01:29:22;4.50;99.90
5588;DHT22;2816;49.778;9.986;2023-12-20T01:31:49;4.40;99.90
5588;DHT22;2816;49.778;9.986;2023-12-20T01:34:16;4.40;99.90
5588;DHT22;2816;49.778;9.986;2023-12-20T01:36:44;4.40;99.90
5588;DHT22;2816;49.778;9.986;2023-12-20T01:39:11;4.40;99.90
5588;DHT22;2816;49.778;9.986;2023-12-20T01:41:38;4.40;99.90
5588;DHT22;2816;49.778;9.986;2023-12-20T01:44:05;4.40;99.90
5588;DHT22;2816;49.778;9.986;2023-12-20T01:46:31;4.40;99.90
5588;DHT22;2816;49.778;9.986;2023-12-20T01:48:59;4.40;99.90
5588;DHT22;2816;49.778;9.986;2023-12-20T01:51:26;4.30;99.90
5588;DHT22;2816;49.778;9.986;2023-12-20T01:53:55;4.40;99.90
5588;DHT22;2816;49.778;9.986;2023-12-20T01:56:24;4.30;99.90
5588;DHT22;2816;49.778;9.986;2023-12-20T01:58:51;4.30;99.90
5588;DHT22;2816;49.778;9.986;2023-12-20T02:01:18;4.30;99.90
5588;DHT22;2816;49.778;9.986;2023-12-20T02:03:45;4.30;99.90
5588;DHT22;2816;49.778;9.986;2023-12-20T02:06:13;4.30;99.90
5588;DHT22;2816;49.778;9.986;2023-12-20T02:08:40;4.30;99.90
5588;DHT22;2816;49.778;9.986;2023-12-20T02:11:08;4.30;99.90
5588;DHT22;2816;49.778;9.986;2023-12-20T02:13:35;4.30;99.90
5588;DHT22;2816;49.778;9.986;2023-12-20T02:16:03;4.30;99.90
5588;DHT22;2816;49.778;9.986;2023-12-20T02:18:30;4.30;99.90
5588;DHT22;2816;49.778;9.986;2023-12-20T02:20:57;4.30;99.90
5588;DHT22;2816;49.778;9.986;2023-12-20T02:23:25;4.30;99.90
5588;DHT22;2816;49.778;9.986;2023-12-20T02:25:52;4.30;99.90
5588;DHT22;2816;49.778;9.986;2023-12-20T02:28:19;4.30;99.90
5588;DHT22;2816;49.778;9.986;2023-12-20T02:30:47;4.30;99.90
5588;DHT22;2816;49.778;9.986;2023-12-20T02:33:15;4.20;99.90
5588;DHT22;2816;49.778;9.986;2023-12-20T02:35:42;4.30;99.90
5588;DHT22;2816;49.778;9.986;2023-12-20T02:38:09;4.20;99.90
5588;DHT22;2816;49.778;9.986;2023-12-20T02:40:37;4.30;99.90
5588;DHT22;2816;49.778;9.986;2023-12-20T02:43:04;4.30;99.90
5588;DHT22;2816;49.778;9.986;2023-12-20T02:45:31;4.20;99.90
5588;DHT22;2816;49.778;9.986;2023-12-20T02:47:58;4.20;99.90
5588;DHT22;2816;49.778;9.986;2023-12-20T02:50:25;4.20;99.90
5588;DHT22;2816;49.778;9.986;2023-12-20T02:52:52;4.20;99.90
5588;DHT22;2816;49.778;9.986;2023-12-20T02:55:18;4.20;99.90
5588;DHT22;2816;49.778;9.986;2023-12-20T02:57:47;4.20;99.90
5588;DHT22;2816;49.778;9.986;2023-12-20T03:00:14;4.20;99.90
5588;DHT22;2816;49.778;9.986;2023-12-20T03:02:41;4.20;99.90
5588;DHT22;2816;49.778;9.986;2023-12-20T03:05:08;4.20;99.90
5588;DHT22;2816;49.778;9.986;2023-12-20T03:07:36;4.20;99.90
5588;DHT22;2816;49.778;9.986;2023-12-20T03:10:04;4.20;99.90
5588;DHT22;2816;49.778;9.986;2023-12-20T03:12:31;4.20;99.90
5588;DHT22;2816;49.778;9.986;2023-12-20T03:14:59;4.10;99.90
5588;DHT22;2816;49.778;9.986;2023-12-20T03:17:27;4.20;99.90
5588;DHT22;2816;49.778;9.986;2023-12-20T03:19:53;4.10;99.90
5588;DHT22;2816;49.778;9.986;2023-12-20T03:22:20;4.10;99.90
5588;DHT22;2816;49.778;9.986;2023-12-20T03:24:47;4.10;99.90
5588;DHT22;2816;49.778;9.986;2023-12-20T03:27:14;4.10;99.90
5588;DHT22;2816;49.778;9.986;2023-12-20T03:29:41;4.10;99.90
5588;DHT22;2816;49.778;9.986;2023-12-20T03:32:09;4.10;99.90
5588;DHT22;2816;49.778;9.986;2023-12-20T03:34:36;4.10;99.90
5588;DHT22;2816;49.778;9.986;2023-12-20T03:37:03;4.10;99.90
5588;DHT22;2816;49.778;9.986;2023-12-20T03:39:30;4.00;99.90
5588;DHT22;2816;49.778;9.986;2023-12-20T03:41:57;4.10;99.90
5588;DHT22;2816;49.778;9.986;2023-12-20T03:44:24;4.10;99.90
5588;DHT22;2816;49.778;9.986;2023-12-20T03:46:50;4.10;99.90
5588;DHT22;2816;49.778;9.986;2023-12-20T03:49:19;4.10;99.90
5588;DHT22;2816;49.778;9.986;2023-12-20T03:51:45;4.10;99.90
5588;DHT22;2816;49.778;9.986;2023-12-20T03:54:12;4.10;99.90
5588;DHT22;2816;49.778;9.986;2023-12-20T03:56:39;4.10;99.90
5588;DHT22;2816;49.778;9.986;2023-12-20T03:59:06;4.00;99.90
5588;DHT22;2816;49.778;9.986;2023-12-20T04:01:33;4.00;99.90
5588;DHT22;2816;49.778;9.986;2023-12-20T04:04:00;4.00;99.90
5588;DHT22;2816;49.778;9.986;2023-12-20T04:06:28;4.00;99.90
5588;DHT22;2816;49.778;9.986;2023-12-20T04:08:55;4.10;99.90
5588;DHT22;2816;49.778;9.986;2023-12-20T04:11:21;4.10;99.90
5588;DHT22;2816;49.778;9.986;2023-12-20T04:13:48;4.10;99.90
5588;DHT22;2816;49.778;9.986;2023-12-20T04:16:15;4.00;99.90
5588;DHT22;2816;49.778;9.986;2023-12-20T04:18:42;4.10;99.90
5588;DHT22;2816;49.778;9.986;2023-12-20T04:21:09;4.10;99.90
5588;DHT22;2816;49.778;9.986;2023-12-20T04:23:37;4.00;99.90
5588;DHT22;2816;49.778;9.986;2023-12-20T04:26:04;4.10;99.90
5588;DHT22;2816;49.778;9.986;2023-12-20T04:28:31;4.00;99.90
5588;DHT22;2816;49.778;9.986;2023-12-20T04:30:58;4.00;99.90
5588;DHT22;2816;49.778;9.986;2023-12-20T04:33:24;4.00;99.90
5588;DHT22;2816;49.778;9.986;2023-12-20T04:35:51;4.00;99.90
5588;DHT22;2816;49.778;9.986;2023-12-20T04:38:18;4.00;99.90
5588;DHT22;2816;49.778;9.986;2023-12-20T04:40:46;4.00;99.90
5588;DHT22;2816;49.778;9.986;2023-12-20T04:43:13;4.00;99.90
5588;DHT22;2816;49.778;9.986;2023-12-20T04:45:40;4.00;99.90
5588;DHT22;2816;49.778;9.986;2023-12-20T04:48:07;4.00;99.90
5588;DHT22;2816;49.778;9.986;2023-12-20T04:50:34;4.00;99.90
5588;DHT22;2816;49.778;9.986;2023-12-20T04:53:01;4.00;99.90
5588;DHT22;2816;49.778;9.986;2023-12-20T04:55:28;4.00;99.90
5588;DHT22;2816;49.778;9.986;2023-12-20T04:57:56;4.00;99.90
5588;DHT22;2816;49.778;9.986;2023-12-20T05:00:23;4.00;99.90
5588;DHT22;2816;49.778;9.986;2023-12-20T05:02:50;4.00;99.90
5588;DHT22;2816;49.778;9.986;2023-12-20T05:05:17;4.00;99.90
5588;DHT22;2816;49.778;9.986;2023-12-20T05:07:44;4.00;99.90
5588;DHT22;2816;49.778;9.986;2023-12-20T05:10:11;4.00;99.90
5588;DHT22;2816;49.778;9.986;2023-12-20T05:12:38;4.00;99.90
5588;DHT22;2816;49.778;9.986;2023-12-20T05:15:07;4.10;99.90
5588;DHT22;2816;49.778;9.986;2023-12-20T05:17:35;4.10;99.90
5588;DHT22;2816;49.778;9.986;2023-12-20T05:20:02;4.00;99.90
5588;DHT22;2816;49.778;9.986;2023-12-20T05:22:29;4.00;99.90
5588;DHT22;2816;49.778;9.986;2023-12-20T05:24:56;4.00;99.90
5588;DHT22;2816;49.778;9.986;2023-12-20T05:27:22;4.00;99.90
5588;DHT22;2816;49.778;9.986;2023-12-20T05:29:49;4.00;99.90
5588;DHT22;2816;49.778;9.986;2023-12-20T05:32:18;4.10;99.90
5588;DHT22;2816;49.778;9.986;2023-12-20T05:34:45;4.10;99.90
5588;DHT22;2816;49.778;9.986;2023-12-20T05:37:12;4.10;99.90
5588;DHT22;2816;49.778;9.986;2023-12-20T05:39:38;4.10;99.90
5588;DHT22;2816;49.778;9.986;2023-12-20T05:42:05;4.10;99.90
5588;DHT22;2816;49.778;9.986;2023-12-20T05:44:32;4.20;99.90
5588;DHT22;2816;49.778;9.986;2023-12-20T05:46:59;4.20;99.90
5588;DHT22;2816;49.778;9.986;2023-12-20T05:49:27;4.20;99.90
5588;DHT22;2816;49.778;9.986;2023-12-20T05:51:54;4.20;99.90
5588;DHT22;2816;49.778;9.986;2023-12-20T05:54:21;4.10;99.90
5588;DHT22;2816;49.778;9.986;2023-12-20T05:56:48;4.10;99.90
5588;DHT22;2816;49.778;9.986;2023-12-20T05:59:16;4.20;99.90
5588;DHT22;2816;49.778;9.986;2023-12-20T06:01:43;4.10;99.90
5588;DHT22;2816;49.778;9.986;2023-12-20T06:04:10;4.20;99.90
5588;DHT22;2816;49.778;9.986;2023-12-20T06:06:42;4.10;99.90
5588;DHT22;2816;49.778;9.986;2023-12-20T06:09:09;4.10;99.90
5588;DHT22;2816;49.778;9.986;2023-12-20T06:11:36;4.20;99.90
5588;DHT22;2816;49.778;9.986;2023-12-20T06:14:03;4.20;99.90
5588;DHT22;2816;49.778;9.986;2023-12-20T06:16:29;4.20;99.90
5588;DHT22;2816;49.778;9.986;2023-12-20T06:18:56;4.20;99.90
5588;DHT22;2816;49.778;9.986;2023-12-20T06:21:23;4.20;99.90
5588;DHT22;2816;49.778;9.986;2023-12-20T06:23:51;4.30;99.90
5588;DHT22;2816;49.778;9.986;2023-12-20T06:26:18;4.30;99.90
5588;DHT22;2816;49.778;9.986;2023-12-20T06:28:45;4.20;99.90
5588;DHT22;2816;49.778;9.986;2023-12-20T06:31:12;4.30;99.90
5588;DHT22;2816;49.778;9.986;2023-12-20T06:33:39;4.30;99.90
5588;DHT22;2816;49.778;9.986;2023-12-20T06:36:07;4.30;99.90
5588;DHT22;2816;49.778;9.986;2023-12-20T06:38:37;4.30;99.90
5588;DHT22;2816;49.778;9.986;2023-12-20T06:41:05;4.30;99.90
5588;DHT22;2816;49.778;9.986;2023-12-20T06:43:32;4.30;99.90
5588;DHT22;2816;49.778;9.986;2023-12-20T06:46:00;4.20;99.90
5588;DHT22;2816;49.778;9.986;2023-12-20T06:48:27;4.20;99.90
5588;DHT22;2816;49.778;9.986;2023-12-20T06:50:54;4.30;99.90
5588;DHT22;2816;49.778;9.986;2023-12-20T06:53:21;4.30;99.90
5588;DHT22;2816;49.778;9.986;2023-12-20T06:55:48;4.30;99.90
5588;DHT22;2816;49.778;9.986;2023-12-20T06:58:16;4.30;99.90
5588;DHT22;2816;49.778;9.986;2023-12-20T07:00:43;4.40;99.90
5588;DHT22;2816;49.778;9.986;2023-12-20T07:03:10;4.40;99.90
5588;DHT22;2816;49.778;9.986;2023-12-20T07:05:37;4.40;99.90
5588;DHT22;2816;49.778;9.986;2023-12-20T07:08:05;4.40;99.90
5588;DHT22;2816;49.778;9.986;2023-12-20T07:10:32;4.30;99.90
5588;DHT22;2816;49.778;9.986;2023-12-20T07:12:59;4.40;99.90
5588;DHT22;2816;49.778;9.986;2023-12-20T07:15:27;4.40;99.90
5588;DHT22;2816;49.778;9.986;2023-12-20T07:17:55;4.50;99.90
5588;DHT22;2816;49.778;9.986;2023-12-20T07:20:22;4.60;99.90
5588;DHT22;2816;49.778;9.986;2023-12-20T07:22:48;4.60;99.90
5588;DHT22;2816;49.778;9.986;2023-12-20T07:25:17;4.50;99.90
5588;DHT22;2816;49.778;9.986;2023-12-20T07:27:44;4.40;99.90
5588;DHT22;2816;49.778;9.986;2023-12-20T07:30:11;4.40;99.90
5588;DHT22;2816;49.778;9.986;2023-12-20T07:32:39;4.40;99.90
5588;DHT22;2816;49.778;9.986;2023-12-20T07:35:07;4.40;99.90
5588;DHT22;2816;49.778;9.986;2023-12-20T07:37:34;4.40;99.90
5588;DHT22;2816;49.778;9.986;2023-12-20T07:40:01;4.50;99.90
5588;DHT22;2816;49.778;9.986;2023-12-20T07:42:29;4.30;99.90
5588;DHT22;2816;49.778;9.986;2023-12-20T07:44:55;4.30;99.90
5588;DHT22;2816;49.778;9.986;2023-12-20T07:47:22;4.30;99.90
5588;DHT22;2816;49.778;9.986;2023-12-20T07:49:52;4.20;99.90
5588;DHT22;2816;49.778;9.986;2023-12-20T07:52:19;4.20;99.90
5588;DHT22;2816;49.778;9.986;2023-12-20T07:54:47;4.20;99.90
5588;DHT22;2816;49.778;9.986;2023-12-20T07:57:14;4.10;99.90
5588;DHT22;2816;49.778;9.986;2023-12-20T07:59:41;4.10;99.90
5588;DHT22;2816;49.778;9.986;2023-12-20T08:02:09;4.10;99.90
5588;DHT22;2816;49.778;9.986;2023-12-20T08:04:37;4.00;99.90
5588;DHT22;2816;49.778;9.986;2023-12-20T08:07:08;4.00;99.90
5588;DHT22;2816;49.778;9.986;2023-12-20T08:09:35;3.90;99.90
5588;DHT22;2816;49.778;9.986;2023-12-20T08:12:02;3.90;99.90
5588;DHT22;2816;49.778;9.986;2023-12-20T08:14:29;3.90;99.90
5588;DHT22;2816;49.778;9.986;2023-12-20T08:16:57;3.90;99.90
5588;DHT22;2816;49.778;9.986;2023-12-20T08:19:23;3.90;99.90
5588;DHT22;2816;49.778;9.986;2023-12-20T08:21:50;3.90;99.90
5588;DHT22;2816;49.778;9.986;2023-12-20T08:24:18;3.90;99.90
5588;DHT22;2816;49.778;9.986;2023-12-20T08:26:45;3.80;99.90
5588;DHT22;2816;49.778;9.986;2023-12-20T08:29:13;3.80;99.90
5588;DHT22;2816;49.778;9.986;2023-12-20T08:31:40;3.80;99.90
5588;DHT22;2816;49.778;9.986;2023-12-20T08:34:06;3.80;99.90
5588;DHT22;2816;49.778;9.986;2023-12-20T08:36:33;3.80;99.90
5588;DHT22;2816;49.778;9.986;2023-12-20T08:39:00;3.90;99.90
5588;DHT22;2816;49.778;9.986;2023-12-20T08:41:30;3.80;99.90
5588;DHT22;2816;49.778;9.986;2023-12-20T08:43:57;3.80;99.90
5588;DHT22;2816;49.778;9.986;2023-12-20T08:46:24;3.80;99.90
5588;DHT22;2816;49.778;9.986;2023-12-20T08:48:51;3.70;99.90
5588;DHT22;2816;49.778;9.986;2023-12-20T08:51:18;3.80;99.90
5588;DHT22;2816;49.778;9.986;2023-12-20T08:53:46;3.90;99.90
5588;DHT22;2816;49.778;9.986;2023-12-20T08:56:13;3.90;99.90
5588;DHT22;2816;49.778;9.986;2023-12-20T08:58:42;4.00;99.90
5588;DHT22;2816;49.778;9.986;2023-12-20T09:01:09;4.00;99.90
5588;DHT22;2816;49.778;9.986;2023-12-20T09:03:36;4.00;99.90
5588;DHT22;2816;49.778;9.986;2023-12-20T09:06:03;4.10;99.90
5588;DHT22;2816;49.778;9.986;2023-12-20T09:08:31;4.00;99.90
5588;DHT22;2816;49.778;9.986;2023-12-20T09:10:57;4.00;99.90
5588;DHT22;2816;49.778;9.986;2023-12-20T09:13:26;4.10;99.90
5588;DHT22;2816;49.778;9.986;2023-12-20T09:15:56;4.10;99.90
5588;DHT22;2816;49.778;9.986;2023-12-20T09:18:23;4.10;99.90
5588;DHT22;2816;49.778;9.986;2023-12-20T09:20:51;4.10;99.90
5588;DHT22;2816;49.778;9.986;2023-12-20T09:23:17;4.10;99.90
5588;DHT22;2816;49.778;9.986;2023-12-20T09:25:44;4.20;99.90
5588;DHT22;2816;49.778;9.986;2023-12-20T09:28:11;4.20;99.90
5588;DHT22;2816;49.778;9.986;2023-12-20T09:30:38;4.20;99.90
5588;DHT22;2816;49.778;9.986;2023-12-20T09:33:07;4.20;99.90
5588;DHT22;2816;49.778;9.986;2023-12-20T09:35:33;4.30;99.90
5588;DHT22;2816;49.778;9.986;2023-12-20T09:38:00;4.30;99.90
5588;DHT22;2816;49.778;9.986;2023-12-20T09:40:28;4.40;99.90
5588;DHT22;2816;49.778;9.986;2023-12-20T09:42:57;4.50;99.90
5588;DHT22;2816;49.778;9.986;2023-12-20T09:45:24;4.70;99.90
5588;DHT22;2816;49.778;9.986;2023-12-20T09:47:52;4.60;99.90
5588;DHT22;2816;49.778;9.986;2023-12-20T09:50:21;4.70;99.90
5588;DHT22;2816;49.778;9.986;2023-12-20T09:52:50;4.80;99.90
5588;DHT22;2816;49.778;9.986;2023-12-20T09:55:18;4.90;99.90
5588;DHT22;2816;49.778;9.986;2023-12-20T09:57:45;4.90;99.90
5588;DHT22;2816;49.778;9.986;2023-12-20T10:00:13;4.90;99.90
5588;DHT22;2816;49.778;9.986;2023-12-20T10:02:45;4.90;99.90
5588;DHT22;2816;49.778;9.986;2023-12-20T10:05:16;4.90;99.90
5588;DHT22;2816;49.778;9.986;2023-12-20T10:07:47;4.90;99.90
5588;DHT22;2816;49.778;9.986;2023-12-20T10:10:14;4.90;99.90
5588;DHT22;2816;49.778;9.986;2023-12-20T10:13:01;5.00;99.90
5588;DHT22;2816;49.778;9.986;2023-12-20T10:15:28;4.90;99.90
5588;DHT22;2816;49.778;9.986;2023-12-20T10:17:55;5.00;99.90
5588;DHT22;2816;49.778;9.986;2023-12-20T10:20:22;5.00;99.90
5588;DHT22;2816;49.778;9.986;2023-12-20T10:22:52;5.10;99.90
5588;DHT22;2816;49.778;9.986;2023-12-20T10:25:20;5.10;99.90
5588;DHT22;2816;49.778;9.986;2023-12-20T10:27:47;5.10;99.90
5588;DHT22;2816;49.778;9.986;2023-12-20T10:30:14;5.10;99.90
5588;DHT22;2816;49.778;9.986;2023-12-20T10:32:41;5.20;99.90
5588;DHT22;2816;49.778;9.986;2023-12-20T10:35:09;5.10;99.90
5588;DHT22;2816;49.778;9.986;2023-12-20T10:37:37;5.20;99.90
5588;DHT22;2816;49.778;9.986;2023-12-20T10:40:06;5.30;99.90
5588;DHT22;2816;49.778;9.986;2023-12-20T10:42:34;5.40;99.90
5588;DHT22;2816;49.778;9.986;2023-12-20T10:45:03;5.40;99.90
5588;DHT22;2816;49.778;9.986;2023-12-20T10:47:31;5.50;99.90
5588;DHT22;2816;49.778;9.986;2023-12-20T10:49:59;5.50;99.90
5588;DHT22;2816;49.778;9.986;2023-12-20T10:52:28;5.50;99.90
5588;DHT22;2816;49.778;9.986;2023-12-20T10:54:55;5.40;99.90
5588;DHT22;2816;49.778;9.986;2023-12-20T10:57:27;5.50;99.90
5588;DHT22;2816;49.778;9.986;2023-12-20T10:59:54;5.40;99.90
5588;DHT22;2816;49.778;9.986;2023-12-20T11:02:22;5.40;99.90
5588;DHT22;2816;49.778;9.986;2023-12-20T11:04:53;5.50;99.90
5588;DHT22;2816;49.778;9.986;2023-12-20T11:07:23;5.40;99.90
5588;DHT22;2816;49.778;9.986;2023-12-20T11:09:57;5.50;99.90
5588;DHT22;2816;49.778;9.986;2023-12-20T11:12:37;5.50;99.90
5588;DHT22;2816;49.778;9.986;2023-12-20T11:15:06;5.60;99.90
5588;DHT22;2816;49.778;9.986;2023-12-20T11:17:35;5.60;99.90
5588;DHT22;2816;49.778;9.986;2023-12-20T11:20:10;5.60;99.90
5588;DHT22;2816;49.778;9.986;2023-12-20T11:22:37;5.60;99.90
5588;DHT22;2816;49.778;9.986;2023-12-20T11:25:08;5.60;99.90
5588;DHT22;2816;49.778;9.986;2023-12-20T11:27:40;5.60;99.90
5588;DHT22;2816;49.778;9.986;2023-12-20T11:30:09;5.60;99.90
5588;DHT22;2816;49.778;9.986;2023-12-20T11:32:36;5.60;99.90
5588;DHT22;2816;49.778;9.986;2023-12-20T11:35:17;5.60;99.90
5588;DHT22;2816;49.778;9.986;2023-12-20T11:37:45;5.70;99.90
5588;DHT22;2816;49.778;9.986;2023-12-20T11:40:16;5.70;99.90
5588;DHT22;2816;49.778;9.986;2023-12-20T11:42:45;5.80;99.90
5588;DHT22;2816;49.778;9.986;2023-12-20T11:45:16;5.70;99.90
5588;DHT22;2816;49.778;9.986;2023-12-20T11:47:47;5.70;99.90
5588;DHT22;2816;49.778;9.986;2023-12-20T11:50:15;5.70;99.90
5588;DHT22;2816;49.778;9.986;2023-12-20T11:52:42;5.60;99.90
5588;DHT22;2816;49.778;9.986;2023-12-20T11:55:09;5.60;99.90
5588;DHT22;2816;49.778;9.986;2023-12-20T11:57:36;5.60;99.90
5588;DHT22;2816;49.778;9.986;2023-12-20T12:00:05;5.70;99.90
5588;DHT22;2816;49.778;9.986;2023-12-20T12:02:32;5.60;99.90
5588;DHT22;2816;49.778;9.986;2023-12-20T12:05:00;5.60;99.90
5588;DHT22;2816;49.778;9.986;2023-12-20T12:07:27;5.70;99.90
5588;DHT22;2816;49.778;9.986;2023-12-20T12:09:54;5.70;99.90
5588;DHT22;2816;49.778;9.986;2023-12-20T12:12:21;5.70;99.90
5588;DHT22;2816;49.778;9.986;2023-12-20T12:14:49;5.70;99.90
5588;DHT22;2816;49.778;9.986;2023-12-20T12:17:18;5.70;99.90
5588;DHT22;2816;49.778;9.986;2023-12-20T12:19:44;5.70;99.90
5588;DHT22;2816;49.778;9.986;2023-12-20T12:22:13;5.70;99.90
5588;DHT22;2816;49.778;9.986;2023-12-20T12:24:42;5.60;99.90
5588;DHT22;2816;49.778;9.986;2023-12-20T12:27:12;5.60;99.90
5588;DHT22;2816;49.778;9.986;2023-12-20T12:29:39;5.60;99.90
5588;DHT22;2816;49.778;9.986;2023-12-20T12:32:07;5.60;99.90
5588;DHT22;2816;49.778;9.986;2023-12-20T12:34:35;5.60;99.90
5588;DHT22;2816;49.778;9.986;2023-12-20T12:37:03;5.50;99.90
5588;DHT22;2816;49.778;9.986;2023-12-20T12:39:30;5.60;99.90
5588;DHT22;2816;49.778;9.986;2023-12-20T12:41:57;5.60;99.90
5588;DHT22;2816;49.778;9.986;2023-12-20T12:44:24;5.60;99.90
5588;DHT22;2816;49.778;9.986;2023-12-20T12:46:51;5.70;99.90
5588;DHT22;2816;49.778;9.986;2023-12-20T12:49:19;5.70;99.90
5588;DHT22;2816;49.778;9.986;2023-12-20T12:51:48;5.70;99.90
5588;DHT22;2816;49.778;9.986;2023-12-20T12:54:15;5.70;99.90
5588;DHT22;2816;49.778;9.986;2023-12-20T12:56:44;5.70;99.90
5588;DHT22;2816;49.778;9.986;2023-12-20T12:59:12;5.50;99.90
5588;DHT22;2816;49.778;9.986;2023-12-20T13:01:39;5.60;99.90
5588;DHT22;2816;49.778;9.986;2023-12-20T13:04:06;5.50;99.90
5588;DHT22;2816;49.778;9.986;2023-12-20T13:06:36;5.60;99.90
5588;DHT22;2816;49.778;9.986;2023-12-20T13:09:04;5.50;99.90
5588;DHT22;2816;49.778;9.986;2023-12-20T13:11:31;5.60;99.90
5588;DHT22;2816;49.778;9.986;2023-12-20T13:13:58;5.50;99.90
5588;DHT22;2816;49.778;9.986;2023-12-20T13:16:25;5.50;99.90
5588;DHT22;2816;49.778;9.986;2023-12-20T13:18:52;5.60;99.90
5588;DHT22;2816;49.778;9.986;2023-12-20T13:21:19;5.60;99.90
5588;DHT22;2816;49.778;9.986;2023-12-20T13:23:46;5.50;99.90
5588;DHT22;2816;49.778;9.986;2023-12-20T13:26:14;5.50;99.90
5588;DHT22;2816;49.778;9.986;2023-12-20T13:28:41;5.50;99.90
5588;DHT22;2816;49.778;9.986;2023-12-20T13:31:08;5.40;99.90
5588;DHT22;2816;49.778;9.986;2023-12-20T13:33:35;5.40;99.90
5588;DHT22;2816;49.778;9.986;2023-12-20T13:36:02;5.40;99.90
5588;DHT22;2816;49.778;9.986;2023-12-20T13:38:29;5.50;99.90
5588;DHT22;2816;49.778;9.986;2023-12-20T13:40:56;5.50;99.90
5588;DHT22;2816;49.778;9.986;2023-12-20T13:43:25;5.40;99.90
5588;DHT22;2816;49.778;9.986;2023-12-20T13:45:52;5.50;99.90
5588;DHT22;2816;49.778;9.986;2023-12-20T13:48:20;5.40;99.90
5588;DHT22;2816;49.778;9.986;2023-12-20T13:50:47;5.30;99.90
5588;DHT22;2816;49.778;9.986;2023-12-20T13:53:14;5.30;99.90
5588;DHT22;2816;49.778;9.986;2023-12-20T13:55:41;5.30;99.90
5588;DHT22;2816;49.778;9.986;2023-12-20T13:58:08;5.20;99.90
5588;DHT22;2816;49.778;9.986;2023-12-20T14:00:37;5.30;99.90
5588;DHT22;2816;49.778;9.986;2023-12-20T14:03:05;5.30;99.90
5588;DHT22;2816;49.778;9.986;2023-12-20T14:05:32;5.20;99.90
5588;DHT22;2816;49.778;9.986;2023-12-20T14:07:59;5.20;99.90
5588;DHT22;2816;49.778;9.986;2023-12-20T14:10:26;5.30;99.90
5588;DHT22;2816;49.778;9.986;2023-12-20T14:12:53;5.20;99.90
5588;DHT22;2816;49.778;9.986;2023-12-20T14:15:20;5.30;99.90
5588;DHT22;2816;49.778;9.986;2023-12-20T14:17:48;5.20;99.90
5588;DHT22;2816;49.778;9.986;2023-12-20T14:20:15;5.30;99.90
5588;DHT22;2816;49.778;9.986;2023-12-20T14:22:43;5.20;99.90
5588;DHT22;2816;49.778;9.986;2023-12-20T14:25:11;5.20;99.90
5588;DHT22;2816;49.778;9.986;2023-12-20T14:27:38;5.10;99.90
5588;DHT22;2816;49.778;9.986;2023-12-20T14:30:07;5.20;99.90
5588;DHT22;2816;49.778;9.986;2023-12-20T14:32:35;5.20;99.90
5588;DHT22;2816;49.778;9.986;2023-12-20T14:35:06;5.10;99.90
5588;DHT22;2816;49.778;9.986;2023-12-20T14:37:34;5.10;99.90
5588;DHT22;2816;49.778;9.986;2023-12-20T14:40:00;5.40;99.90
5588;DHT22;2816;49.778;9.986;2023-12-20T14:42:27;5.40;99.90
5588;DHT22;2816;49.778;9.986;2023-12-20T14:44:55;5.30;99.90
5588;DHT22;2816;49.778;9.986;2023-12-20T14:47:21;5.30;99.90
5588;DHT22;2816;49.778;9.986;2023-12-20T14:49:50;5.20;99.90
5588;DHT22;2816;49.778;9.986;2023-12-20T14:52:19;5.20;99.90
5588;DHT22;2816;49.778;9.986;2023-12-20T14:54:45;5.20;99.90
5588;DHT22;2816;49.778;9.986;2023-12-20T14:57:13;5.20;99.90
5588;DHT22;2816;49.778;9.986;2023-12-20T14:59:40;5.20;99.90
5588;DHT22;2816;49.778;9.986;2023-12-20T15:02:09;5.20;99.90
5588;DHT22;2816;49.778;9.986;2023-12-20T15:04:35;5.20;99.90
5588;DHT22;2816;49.778;9.986;2023-12-20T15:07:03;5.20;99.90
5588;DHT22;2816;49.778;9.986;2023-12-20T15:09:32;5.10;99.90
5588;DHT22;2816;49.778;9.986;2023-12-20T15:11:59;5.10;99.90
5588;DHT22;2816;49.778;9.986;2023-12-20T15:14:26;5.10;99.90
5588;DHT22;2816;49.778;9.986;2023-12-20T15:16:54;5.20;99.90
5588;DHT22;2816;49.778;9.986;2023-12-20T15:19:21;5.10;99.90
5588;DHT22;2816;49.778;9.986;2023-12-20T15:21:48;5.10;99.90
5588;DHT22;2816;49.778;9.986;2023-12-20T15:24:15;5.10;99.90
5588;DHT22;2816;49.778;9.986;2023-12-20T15:26:46;5.10;99.90
5588;DHT22;2816;49.778;9.986;2023-12-20T15:29:13;5.10;99.90
5588;DHT22;2816;49.778;9.986;2023-12-20T15:31:43;5.00;99.90
5588;DHT22;2816;49.778;9.986;2023-12-20T15:34:10;5.00;99.90
5588;DHT22;2816;49.778;9.986;2023-12-20T15:36:38;5.00;99.90
5588;DHT22;2816;49.778;9.986;2023-12-20T15:39:06;4.90;99.90
5588;DHT22;2816;49.778;9.986;2023-12-20T15:41:34;4.90;99.90
5588;DHT22;2816;49.778;9.986;2023-12-20T15:44:03;4.90;99.90
5588;DHT22;2816;49.778;9.986;2023-12-20T15:46:30;4.90;99.90
5588;DHT22;2816;49.778;9.986;2023-12-20T15:48:58;4.80;99.90
5588;DHT22;2816;49.778;9.986;2023-12-20T15:51:25;4.80;99.90
5588;DHT22;2816;49.778;9.986;2023-12-20T15:53:52;4.80;99.90
5588;DHT22;2816;49.778;9.986;2023-12-20T15:56:19;4.80;99.90
5588;DHT22;2816;49.778;9.986;2023-12-20T15:58:46;4.80;99.90
5588;DHT22;2816;49.778;9.986;2023-12-20T16:01:15;4.90;99.90
5588;DHT22;2816;49.778;9.986;2023-12-20T16:03:42;4.90;99.90
5588;DHT22;2816;49.778;9.986;2023-12-20T16:06:09;4.80;99.90
5588;DHT22;2816;49.778;9.986;2023-12-20T16:08:36;4.80;99.90
5588;DHT22;2816;49.778;9.986;2023-12-20T16:11:03;4.70;99.90
5588;DHT22;2816;49.778;9.986;2023-12-20T16:13:30;4.70;99.90
5588;DHT22;2816;49.778;9.986;2023-12-20T16:15:57;4.60;99.90
5588;DHT22;2816;49.778;9.986;2023-12-20T16:18:25;4.60;99.90